Mehmet Bey — 9HUD6 — position and weather

sailwx.info

Track history (hours):
 
Tides and Currents Weather Stations Pressure Air Temp Water Temp Dewpoint Dewpoint Depression Visibility Wind Speed Wind Dir Waves Ship Positions

Mehmet Bey

Last reported at 2016-Aug-20 15:16 UTC. Time now 2016-Aug-24 12:02 UTC.
Position N 40°45' E 029°36'.

Length 131 m; draft 7.2 m.

Type: Cargo ship. MMSI: 248864000.

Date/timePositionNaut miles runAvg speedWind from/ knotsBaromVisibWave heightAir tempDewpointWater temp
2016-Aug-20 15:16N 40°45' E 029°36'6 7.3
2016-Aug-20 14:28N 40°45' E 029°29'6 7.1
2016-Aug-20 13:33N 40°44' E 029°20'8 7.4
2016-Aug-20 12:32N 40°44' E 029°10'8 7.7
2016-Aug-20 11:33N 40°44' E 029°00'137 6.5
2016-Aug-19 14:24N 40°00' E 026°09'126 6.6
2016-Aug-18 19:23N 38°11' E 024°49'8 8.1
2016-Aug-18 18:24N 38°04' E 024°44'7 8.1
2016-Aug-18 17:33N 37°58' E 024°39'7 7.3
2016-Aug-18 16:33N 37°52' E 024°36'7 6.3
2016-Aug-18 15:31N 37°46' E 024°32'44 7.0
2016-Aug-18 09:12N 37°06' E 024°07'5 7.5
2016-Aug-18 08:33N 37°02' E 024°05'8 7.7
2016-Aug-18 07:33N 36°54' E 024°02'7 7.3
2016-Aug-18 06:33N 36°48' E 023°59'7 6.5
2016-Aug-18 05:33N 36°42' E 023°55'7 7.3
2016-Aug-18 04:33N 36°38' E 023°48'8 8.2
2016-Aug-18 03:32N 36°33' E 023°39'8 7.9
2016-Aug-18 02:33N 36°29' E 023°31'10 8.0
2016-Aug-18 01:17N 36°24' E 023°20'6 7.7
2016-Aug-18 00:32N 36°21' E 023°14'213 6.4
2016-Aug-16 15:28N 38°41' E 019°52'8 8.4
2016-Aug-16 14:33N 38°48' E 019°49'431 8.3
2016-Aug-14 10:33N 44°23' E 013°46'8 8.4
2016-Aug-14 09:33N 44°30' E 013°40'11 8.5
2016-Aug-14 08:17N 44°39' E 013°32'6 8.1
2016-Aug-14 07:33N 44°44' E 013°27'8 8.1
2016-Aug-14 06:33N 44°51' E 013°21'16 8.1
2016-Aug-14 04:33N 45°05' E 013°09'8 7.8
2016-Aug-14 03:33N 45°12' E 013°04'8 7.7
2016-Aug-14 02:33N 45°20' E 013°04'17 8.4
2016-Aug-14 00:33N 45°33' E 013°18'18 5.9
2016-Aug-13 21:34N 45°47' E 013°33'  
2016-Aug-10 23:33N 45°22' E 012°59'6 5.9
2016-Aug-10 22:33N 45°20' E 012°51'5 5.4
2016-Aug-10 21:33N 45°19' E 012°44'5 5.5
2016-Aug-10 20:33N 45°16' E 012°37'5 5.5
2016-Aug-10 19:33N 45°15' E 012°29'7 6.9
2016-Aug-10 18:33N 45°20' E 012°22'7 7.0
2016-Aug-10 17:34N 45°25' E 012°16'2 1.8
2016-Aug-10 16:32N 45°27' E 012°15'0 0.0
2016-Aug-10 15:32N 45°27' E 012°15'  
Track history (hours):
 
Tides and Currents Weather Stations Pressure Air Temp Water Temp Dewpoint Dewpoint Depression Visibility Wind Speed Wind Dir Waves Ship Positions

Mehmet Bey

Last reported at 2016-Aug-20 15:16 UTC. Time now 2016-Aug-24 12:02 UTC.
Position N 40°45' E 029°36'.

Length 131 m; draft 7.2 m.

Type: Cargo ship. MMSI: 248864000.

Date/timePositionNaut miles runAvg speedWind from/ knotsBaromVisibWave heightAir tempDewpointWater temp
2016-Aug-20 15:16N 40°45' E 029°36'6 7.3
2016-Aug-20 14:28N 40°45' E 029°29'6 7.1
2016-Aug-20 13:33N 40°44' E 029°20'8 7.4
2016-Aug-20 12:32N 40°44' E 029°10'8 7.7
2016-Aug-20 11:33N 40°44' E 029°00'137 6.5
2016-Aug-19 14:24N 40°00' E 026°09'126 6.6
2016-Aug-18 19:23N 38°11' E 024°49'8 8.1
2016-Aug-18 18:24N 38°04' E 024°44'7 8.1
2016-Aug-18 17:33N 37°58' E 024°39'7 7.3
2016-Aug-18 16:33N 37°52' E 024°36'7 6.3
2016-Aug-18 15:31N 37°46' E 024°32'44 7.0
2016-Aug-18 09:12N 37°06' E 024°07'5 7.5
2016-Aug-18 08:33N 37°02' E 024°05'8 7.7
2016-Aug-18 07:33N 36°54' E 024°02'7 7.3
2016-Aug-18 06:33N 36°48' E 023°59'7 6.5
2016-Aug-18 05:33N 36°42' E 023°55'7 7.3
2016-Aug-18 04:33N 36°38' E 023°48'8 8.2
2016-Aug-18 03:32N 36°33' E 023°39'8 7.9
2016-Aug-18 02:33N 36°29' E 023°31'10 8.0
2016-Aug-18 01:17N 36°24' E 023°20'6 7.7
2016-Aug-18 00:32N 36°21' E 023°14'213 6.4
2016-Aug-16 15:28N 38°41' E 019°52'8 8.4
2016-Aug-16 14:33N 38°48' E 019°49'431 8.3
2016-Aug-14 10:33N 44°23' E 013°46'8 8.4
2016-Aug-14 09:33N 44°30' E 013°40'11 8.5
2016-Aug-14 08:17N 44°39' E 013°32'6 8.1
2016-Aug-14 07:33N 44°44' E 013°27'8 8.1
2016-Aug-14 06:33N 44°51' E 013°21'16 8.1
2016-Aug-14 04:33N 45°05' E 013°09'8 7.8
2016-Aug-14 03:33N 45°12' E 013°04'8 7.7
2016-Aug-14 02:33N 45°20' E 013°04'17 8.4
2016-Aug-14 00:33N 45°33' E 013°18'18 5.9
2016-Aug-13 21:34N 45°47' E 013°33'  
2016-Aug-10 23:33N 45°22' E 012°59'6 5.9
2016-Aug-10 22:33N 45°20' E 012°51'5 5.4
2016-Aug-10 21:33N 45°19' E 012°44'5 5.5
2016-Aug-10 20:33N 45°16' E 012°37'5 5.5
2016-Aug-10 19:33N 45°15' E 012°29'7 6.9
2016-Aug-10 18:33N 45°20' E 012°22'7 7.0
2016-Aug-10 17:34N 45°25' E 012°16'2 1.8
2016-Aug-10 16:32N 45°27' E 012°15'0 0.0
2016-Aug-10 15:32N 45°27' E 012°15'  

Dump ship's entire track history